Time;durP1;ratioP1;P1;durP2;ratioP2;P2;SDS_P1;SDS_P2;PMS_P1;PMS_P2;Temp;Humidity;BMP_temperature;BMP_pressure;BME280_temperature;BME280_humidity;BME280_pressure;Samples;Min_cycle;Max_cycle;Signal;HPM_P1;HPM_P2
2023/07/26 00:02:25;;;;;;;17.40;15.77;;;;;;;13.85;100.00;97666.22;4990649;28;20658;-76
2023/07/26 00:04:51;;;;;;;20.50;16.30;;;;;;;13.91;100.00;97670.56;4994120;28;20214;-76
2023/07/26 00:07:17;;;;;;;17.20;15.60;;;;;;;13.94;100.00;97667.41;4994047;28;20212;-76
2023/07/26 00:09:44;;;;;;;18.10;16.40;;;;;;;13.92;100.00;97669.50;4993693;28;20722;-76
2023/07/26 00:12:12;;;;;;;18.60;16.80;;;;;;;13.90;100.00;97672.44;4992770;28;20685;-76
2023/07/26 00:14:39;;;;;;;19.50;17.60;;;;;;;13.98;100.00;97669.31;4993856;28;20211;-76
2023/07/26 00:17:05;;;;;;;18.27;16.50;;;;;;;13.91;100.00;97679.41;4993882;28;20215;-76
2023/07/26 00:19:31;;;;;;;19.37;17.63;;;;;;;13.94;100.00;97670.91;4992920;28;20227;-76
2023/07/26 00:21:58;;;;;;;18.73;16.87;;;;;;;13.94;100.00;97678.91;4993964;28;20204;-76
2023/07/26 00:24:24;;;;;;;19.03;16.90;;;;;;;13.95;100.00;97677.84;4993950;28;20203;-76
2023/07/26 00:26:50;;;;;;;18.53;16.73;;;;;;;14.00;100.00;97677.09;4993919;28;20215;-76
2023/07/26 00:29:17;;;;;;;18.80;16.97;;;;;;;14.02;100.00;97673.13;4993839;28;20231;-77
2023/07/26 00:31:44;;;;;;;19.07;17.07;;;;;;;14.04;100.00;97683.56;4992435;28;20203;-76
2023/07/26 00:34:10;;;;;;;18.70;16.70;;;;;;;14.07;100.00;97683.06;4993579;28;20674;-77
2023/07/26 00:36:37;;;;;;;16.57;14.83;;;;;;;14.13;100.00;97682.06;4993876;28;20226;-76
2023/07/26 00:39:04;;;;;;;14.97;13.67;;;;;;;14.15;100.00;97680.75;4992815;28;20241;-76
2023/07/26 00:41:30;;;;;;;16.67;15.13;;;;;;;14.15;100.00;97686.09;4990134;28;20706;-76
2023/07/26 00:43:56;;;;;;;16.70;14.90;;;;;;;14.16;100.00;97689.59;4993784;28;20208;-76
2023/07/26 00:46:23;;;;;;;16.83;15.33;;;;;;;14.10;100.00;97695.91;4993563;28;20207;-76
2023/07/26 00:48:49;;;;;;;14.63;13.33;;;;;;;14.08;100.00;97688.16;4992376;28;20727;-76
2023/07/26 00:51:16;;;;;;;16.57;14.87;;;;;;;14.13;100.00;97695.44;4992829;28;20712;-76
2023/07/26 00:53:42;;;;;;;16.57;15.13;;;;;;;14.11;100.00;97698.34;4995315;28;20214;-76
2023/07/26 00:56:10;;;;;;;15.67;14.27;;;;;;;14.16;100.00;97694.94;4997204;28;20203;-76
2023/07/26 00:58:36;;;;;;;13.87;12.57;;;;;;;14.13;100.00;97704.28;4995034;28;20227;-76
2023/07/26 01:01:03;;;;;;;14.60;13.13;;;;;;;14.15;100.00;97704.81;4995838;28;20233;-76
2023/07/26 01:03:30;;;;;;;13.67;12.43;;;;;;;14.09;100.00;97703.16;4997118;28;20250;-77
2023/07/26 01:06:20;;;;;;;15.33;13.93;;;;;;;14.11;100.00;97700.22;4996997;28;20211;-77
2023/07/26 01:09:11;;;;;;;14.30;13.00;;;;;;;14.03;100.00;97706.00;4994281;28;20227;-77
2023/07/26 01:11:50;;;;;;;14.40;13.00;;;;;;;14.10;100.00;97709.28;4994040;28;20202;-76
2023/07/26 01:14:18;;;;;;;14.70;12.40;;;;;;;14.08;100.00;97712.22;4980223;28;20195;-76
2023/07/26 01:16:46;;;;;;;14.40;13.00;;;;;;;14.08;100.00;97708.75;4996819;28;20203;-76
2023/07/26 01:19:12;;;;;;;15.33;13.93;;;;;;;14.05;100.00;97707.38;4996747;28;20237;-76
2023/07/26 01:21:38;;;;;;;13.83;11.20;;;;;;;14.00;100.00;97711.84;4996669;28;20231;-76
2023/07/26 01:24:05;;;;;;;11.63;10.53;;;;;;;13.96;100.00;97713.38;4996302;28;20675;-76
2023/07/26 01:26:31;;;;;;;11.03;9.90;;;;;;;13.90;100.00;97712.53;4994311;28;20234;-76
2023/07/26 01:28:58;;;;;;;12.50;11.20;;;;;;;13.89;100.00;97710.09;4994517;28;20227;-76
2023/07/26 01:31:25;;;;;;;12.13;10.47;;;;;;;13.87;100.00;97720.22;4996500;28;20207;-76
2023/07/26 01:33:53;;;;;;;10.90;10.00;;;;;;;13.82;100.00;97720.97;4996476;28;20207;-76
2023/07/26 01:36:22;;;;;;;11.33;10.17;;;;;;;13.84;100.00;97713.50;4996105;28;20643;-76
2023/07/26 01:38:50;;;;;;;8.73;7.60;;;;;;;13.75;100.00;97712.31;4995981;28;20231;-76
2023/07/26 01:41:18;;;;;;;6.77;6.17;;;;;;;13.74;100.00;97720.59;4996213;28;20227;-76
2023/07/26 01:43:45;;;;;;;7.07;6.47;;;;;;;13.75;100.00;97731.03;4995145;28;20218;-76
2023/07/26 01:46:13;;;;;;;6.67;6.00;;;;;;;13.67;100.00;97728.78;4996240;28;20207;-76
2023/07/26 01:48:39;;;;;;;6.07;5.43;;;;;;;13.63;100.00;97733.00;4996113;28;20270;-76
2023/07/26 01:51:06;;;;;;;6.60;5.97;;;;;;;13.71;100.00;97723.75;4995756;28;20211;-76
2023/07/26 01:53:34;;;;;;;7.47;5.00;;;;;;;13.55;100.00;97722.72;4995787;28;20570;-76
2023/07/26 01:56:02;;;;;;;6.13;5.53;;;;;;;13.51;100.00;97726.94;4994159;28;20667;-76
2023/07/26 01:58:28;;;;;;;7.03;5.67;;;;;;;13.36;100.00;97724.06;4995596;28;20714;-76
2023/07/26 02:00:55;;;;;;;6.67;5.30;;;;;;;13.42;100.00;97724.94;4995890;28;20233;-76
2023/07/26 02:03:21;;;;;;;9.07;5.50;;;;;;;13.40;100.00;97733.22;4996106;28;20217;-76
2023/07/26 02:05:48;;;;;;;5.50;4.90;;;;;;;13.42;100.00;97730.25;4995925;28;20204;-76
2023/07/26 02:08:17;;;;;;;9.17;6.10;;;;;;;13.36;100.00;97734.75;4996792;28;20223;-76
2023/07/26 02:10:44;;;;;;;6.03;5.37;;;;;;;13.34;100.00;97728.81;4995250;28;20209;-77
2023/07/26 02:13:10;;;;;;;6.77;5.83;;;;;;;13.38;100.00;97732.63;4995729;28;20207;-77
2023/07/26 02:15:36;;;;;;;5.53;5.03;;;;;;;13.29;100.00;97736.75;4995694;28;20218;-77
2023/07/26 02:18:03;;;;;;;6.60;4.90;;;;;;;13.35;100.00;97730.47;4995606;28;20234;-77
2023/07/26 02:20:29;;;;;;;6.17;4.83;;;;;;;13.28;100.00;97739.66;4994959;28;20250;-77
2023/07/26 02:22:57;;;;;;;5.77;4.97;;;;;;;13.29;100.00;97734.09;4995511;28;20211;-77
2023/07/26 02:25:23;;;;;;;5.53;4.67;;;;;;;13.23;100.00;97735.06;4995492;28;20211;-77
2023/07/26 02:27:49;;;;;;;5.67;4.27;;;;;;;13.35;100.00;97743.81;4995405;28;20213;-77
2023/07/26 02:30:16;;;;;;;4.30;3.20;;;;;;;13.40;100.00;97746.56;4996014;28;20231;-77
2023/07/26 02:32:42;;;;;;;6.27;3.33;;;;;;;13.43;100.00;97746.03;4995342;28;20207;-77
2023/07/26 02:35:09;;;;;;;5.30;3.60;;;;;;;13.47;100.00;97743.72;4994663;28;20203;-77
2023/07/26 02:37:35;;;;;;;4.10;3.80;;;;;;;13.43;100.00;97740.72;4995248;28;20616;-77
2023/07/26 02:40:02;;;;;;;5.73;3.97;;;;;;;13.38;100.00;97743.31;4994785;28;20231;-76
2023/07/26 02:42:28;;;;;;;5.03;3.87;;;;;;;13.36;100.00;97752.63;4995076;28;20311;-76
2023/07/26 02:44:55;;;;;;;6.77;4.20;;;;;;;13.28;100.00;97753.84;4995069;28;20328;-76
2023/07/26 02:47:22;;;;;;;6.23;3.97;;;;;;;13.29;100.00;97754.66;4995032;28;20214;-76
2023/07/26 02:49:48;;;;;;;3.97;3.57;;;;;;;13.30;100.00;97758.94;4994670;28;20243;-76
2023/07/26 02:52:14;;;;;;;4.47;4.03;;;;;;;13.25;100.00;97761.53;4993865;28;20213;-76
2023/07/26 02:54:41;;;;;;;6.77;4.13;;;;;;;13.28;100.00;97764.50;4994880;28;20552;-76
2023/07/26 02:57:07;;;;;;;4.57;3.67;;;;;;;13.16;100.00;97761.09;4994796;28;20239;-77
2023/07/26 02:59:34;;;;;;;5.47;3.93;;;;;;;13.15;100.00;97770.16;4994798;28;20223;-77
2023/07/26 03:02:00;;;;;;;4.83;3.83;;;;;;;13.15;100.00;97775.50;4995078;28;20235;-77
2023/07/26 03:04:26;;;;;;;4.90;4.33;;;;;;;13.15;100.00;97775.50;4994835;28;20211;-76
2023/07/26 03:06:53;;;;;;;4.27;3.87;;;;;;;13.12;100.00;97770.63;4995572;28;20788;-76
2023/07/26 03:09:19;;;;;;;4.20;3.87;;;;;;;13.13;100.00;97772.28;4994183;28;20227;-76
2023/07/26 03:11:46;;;;;;;6.10;4.27;;;;;;;13.09;100.00;97770.31;4994295;28;20217;-76
2023/07/26 03:14:12;;;;;;;5.20;4.10;;;;;;;13.18;100.00;97779.53;4994642;28;20210;-76
2023/07/26 03:16:38;;;;;;;4.07;3.70;;;;;;;13.11;100.00;97778.91;4993417;28;20214;-76
2023/07/26 03:19:05;;;;;;;3.70;3.40;;;;;;;13.04;100.00;97776.41;4994271;28;20234;-77
2023/07/26 03:21:31;;;;;;;4.00;3.70;;;;;;;13.08;100.00;97782.88;4994555;28;20313;-77
2023/07/26 03:23:58;;;;;;;3.67;3.37;;;;;;;13.11;100.00;97782.38;4994063;28;20207;-77
2023/07/26 03:26:24;;;;;;;4.23;3.70;;;;;;;13.03;100.00;97781.97;4995770;28;20214;-77
2023/07/26 03:28:51;;;;;;;7.87;3.70;;;;;;;13.02;100.00;97781.16;4995392;28;20718;-77
2023/07/26 03:31:17;;;;;;;4.07;3.60;;;;;;;12.95;100.00;97788.47;4994366;28;20241;-77
2023/07/26 03:33:43;;;;;;;4.40;3.60;;;;;;;12.97;100.00;97788.28;4994204;28;20217;-77
2023/07/26 03:36:10;;;;;;;3.67;3.33;;;;;;;13.06;100.00;97797.50;4993515;28;20203;-77
2023/07/26 03:38:36;;;;;;;4.23;3.47;;;;;;;12.98;100.00;97793.34;4993730;28;20597;-76
2023/07/26 03:41:02;;;;;;;6.13;4.50;;;;;;;12.98;100.00;97797.88;4994022;28;20252;-76
2023/07/26 03:43:29;;;;;;;6.57;4.10;;;;;;;13.01;100.00;97790.22;4994188;28;20246;-76
2023/07/26 03:45:55;;;;;;;4.17;3.73;;;;;;;12.94;100.00;97791.38;4994077;28;20313;-76
2023/07/26 03:48:22;;;;;;;4.53;3.80;;;;;;;12.95;100.00;97790.31;4993765;28;20230;-76
2023/07/26 03:50:48;;;;;;;4.20;3.80;;;;;;;12.91;100.00;97792.66;4991412;28;20218;-77
2023/07/26 03:53:14;;;;;;;4.43;4.03;;;;;;;12.92;100.00;97798.78;4994095;28;20211;-77
2023/07/26 03:55:41;;;;;;;4.83;3.87;;;;;;;12.92;100.00;97801.47;4993750;28;20665;-77
2023/07/26 03:58:07;;;;;;;4.40;3.80;;;;;;;13.02;100.00;97794.50;4994070;28;20406;-77
2023/07/26 04:00:33;;;;;;;5.67;4.13;;;;;;;13.10;100.00;97801.28;4991916;28;20226;-77
2023/07/26 04:03:00;;;;;;;5.83;4.13;;;;;;;13.03;100.00;97806.78;4988494;28;20221;-77
2023/07/26 04:05:26;;;;;;;4.37;3.97;;;;;;;13.10;100.00;97799.44;4991423;28;20210;-77
2023/07/26 04:07:53;;;;;;;5.50;4.20;;;;;;;13.05;100.00;97809.22;4995116;28;20210;-77
2023/07/26 04:10:28;;;;;;;4.57;4.13;;;;;;;13.02;100.00;97810.50;4993972;28;20213;-77
2023/07/26 04:12:54;;;;;;;6.80;4.33;;;;;;;13.06;100.00;97811.66;4993613;28;20233;-77
2023/07/26 04:15:21;;;;;;;7.27;4.80;;;;;;;13.12;100.00;97809.88;4991670;28;20206;-77
2023/07/26 04:17:47;;;;;;;4.80;4.40;;;;;;;13.11;100.00;97814.41;4990272;28;20219;-77
2023/07/26 04:20:13;;;;;;;4.90;3.70;;;;;;;13.17;100.00;97821.47;4990585;28;20586;-77
2023/07/26 04:22:40;;;;;;;5.43;4.40;;;;;;;13.21;100.00;97816.44;4993601;28;20210;-77
2023/07/26 04:25:07;;;;;;;4.97;4.57;;;;;;;13.24;100.00;97819.44;4992144;28;20202;-77
2023/07/26 04:27:34;;;;;;;7.07;4.70;;;;;;;13.34;100.00;97827.59;4994727;28;20294;-77
2023/07/26 04:30:00;;;;;;;5.50;4.90;;;;;;;13.31;100.00;97817.44;4997450;28;20687;-78
2023/07/26 04:32:27;;;;;;;6.37;5.77;;;;;;;13.22;100.00;97815.38;4997061;28;20678;-78
2023/07/26 04:34:53;;;;;;;7.87;5.77;;;;;;;13.23;100.00;97831.16;4997340;28;20297;-77
2023/07/26 04:37:19;;;;;;;7.13;5.77;;;;;;;13.23;100.00;97819.66;4996929;28;20218;-77
2023/07/26 04:39:49;;;;;;;6.37;5.50;;;;;;;13.28;100.00;97820.56;4996860;28;20714;-78
2023/07/26 04:42:15;;;;;;;6.23;4.60;;;;;;;13.25;100.00;97828.25;4996925;28;20251;-77
2023/07/26 04:44:42;;;;;;;6.97;5.07;;;;;;;13.26;100.00;97830.69;4996611;28;20210;-77
2023/07/26 04:47:08;;;;;;;6.53;5.60;;;;;;;13.35;100.00;97823.91;4996647;28;20342;-77
2023/07/26 04:49:34;;;;;;;6.97;5.17;;;;;;;13.38;100.00;97833.28;4995628;28;20227;-77
2023/07/26 04:52:01;;;;;;;9.43;5.40;;;;;;;13.42;100.00;97834.41;4993735;28;20211;-78
2023/07/26 04:54:28;;;;;;;5.50;5.00;;;;;;;13.54;100.00;97837.81;4995959;28;20250;-77
2023/07/26 04:56:55;;;;;;;6.60;5.10;;;;;;;13.42;100.00;97837.91;4995423;28;20211;-78
2023/07/26 04:59:21;;;;;;;5.30;4.80;;;;;;;13.44;100.00;97838.47;4995745;28;20259;-78
2023/07/26 05:01:47;;;;;;;6.70;4.83;;;;;;;13.45;100.00;97844.63;4995289;28;20588;-78
2023/07/26 05:04:14;;;;;;;6.73;4.10;;;;;;;13.58;100.00;97850.47;4997251;28;20279;-78
2023/07/26 05:06:40;;;;;;;7.40;4.00;;;;;;;13.53;100.00;97847.72;4998415;28;20527;-78
2023/07/26 05:09:07;;;;;;;3.53;3.23;;;;;;;13.58;100.00;97854.97;4998072;28;20223;-77
2023/07/26 05:11:33;;;;;;;5.67;4.10;;;;;;;13.57;100.00;97859.50;4996681;28;20215;-78
2023/07/26 05:13:59;;;;;;;4.50;3.67;;;;;;;13.69;100.00;97865.59;4996460;28;20211;-78
2023/07/26 05:16:26;;;;;;;3.90;3.60;;;;;;;13.69;100.00;97867.44;4996400;28;20206;-78
2023/07/26 05:18:53;;;;;;;3.60;3.30;;;;;;;13.68;100.00;97871.16;4996447;28;20242;-77
2023/07/26 05:21:19;;;;;;;4.57;3.90;;;;;;;13.68;100.00;97869.31;4996351;28;20231;-78
2023/07/26 05:23:46;;;;;;;6.00;4.00;;;;;;;13.69;100.00;97868.25;4996406;28;20207;-78
2023/07/26 05:26:12;;;;;;;4.03;3.50;;;;;;;13.72;100.00;97883.00;4996309;28;20211;-78
2023/07/26 05:28:38;;;;;;;5.50;4.07;;;;;;;13.73;100.00;97873.91;4995952;28;20234;-78
2023/07/26 05:31:05;;;;;;;5.87;4.33;;;;;;;13.65;100.00;97872.47;4995980;28;20214;-78
2023/07/26 05:33:31;;;;;;;4.50;4.10;;;;;;;13.64;100.00;97870.84;4995819;28;20215;-78
2023/07/26 05:35:57;;;;;;;4.90;4.33;;;;;;;13.67;100.00;97872.22;4996893;28;20214;-78
2023/07/26 05:38:24;;;;;;;8.07;4.50;;;;;;;13.74;100.00;97875.56;4996326;28;20237;-78
2023/07/26 05:40:50;;;;;;;4.80;4.07;;;;;;;13.74;100.00;97880.91;4997493;28;20635;-77
2023/07/26 05:43:18;;;;;;;4.93;4.30;;;;;;;13.70;100.00;97880.56;4997847;28;20207;-77
2023/07/26 05:45:45;;;;;;;4.87;3.80;;;;;;;13.73;100.00;97872.06;4997672;28;20614;-78
2023/07/26 05:48:11;;;;;;;4.00;3.60;;;;;;;13.76;100.00;97868.91;4997482;28;20208;-77
2023/07/26 05:50:38;;;;;;;5.93;3.90;;;;;;;13.79;100.00;97878.31;4995660;28;20211;-78
2023/07/26 05:53:04;;;;;;;6.73;4.30;;;;;;;13.80;100.00;97878.03;4995852;28;20203;-78
2023/07/26 05:55:30;;;;;;;5.30;4.70;;;;;;;13.84;100.00;97894.41;4995501;28;20213;-78
2023/07/26 05:57:57;;;;;;;5.77;4.17;;;;;;;13.78;100.00;97885.50;4995600;28;20204;-78
2023/07/26 06:00:23;;;;;;;6.47;4.20;;;;;;;13.91;100.00;97887.84;4995832;28;20203;-78
2023/07/26 06:02:49;;;;;;;4.07;3.70;;;;;;;14.07;100.00;97891.56;4995617;28;20231;-78
2023/07/26 06:05:16;;;;;;;4.67;3.57;;;;;;;14.10;100.00;97899.06;4996981;28;20209;-77
2023/07/26 06:07:42;;;;;;;4.60;3.43;;;;;;;14.28;100.00;97896.16;4997011;28;20611;-77
2023/07/26 06:10:09;;;;;;;3.70;3.00;;;;;;;14.38;100.00;97899.81;4995938;28;20313;-78
2023/07/26 06:12:35;;;;;;;4.77;2.90;;;;;;;14.40;100.00;97902.22;4995494;28;20208;-78
2023/07/26 06:15:01;;;;;;;3.83;3.40;;;;;;;14.55;100.00;97899.75;4995323;28;20688;-78
2023/07/26 06:17:28;;;;;;;7.00;2.93;;;;;;;14.66;100.00;97899.63;4995484;28;20546;-78
2023/07/26 06:19:54;;;;;;;4.37;2.53;;;;;;;14.73;100.00;97908.31;4995885;28;20253;-77
2023/07/26 06:22:20;;;;;;;4.40;2.80;;;;;;;14.87;100.00;97906.88;4996811;28;20223;-77
2023/07/26 06:24:47;;;;;;;3.93;2.67;;;;;;;14.85;100.00;97908.19;4998953;28;20203;-78
2023/07/26 06:27:13;;;;;;;5.23;2.53;;;;;;;14.92;100.00;97898.91;4999369;28;20224;-79
2023/07/26 06:29:40;;;;;;;3.30;2.70;;;;;;;14.83;100.00;97908.41;4998183;28;20319;-77
2023/07/26 06:32:06;;;;;;;4.23;2.53;;;;;;;14.90;100.00;97909.06;4999937;28;20253;-79
2023/07/26 06:34:33;;;;;;;2.77;2.50;;;;;;;14.94;100.00;97907.50;5000167;28;20213;-79
2023/07/26 06:36:59;;;;;;;3.67;2.53;;;;;;;14.87;100.00;97908.72;5000101;28;20227;-79
2023/07/26 06:39:28;;;;;;;3.60;2.87;;;;;;;14.82;100.00;97914.03;4998448;28;20237;-76
2023/07/26 06:41:54;;;;;;;5.20;2.53;;;;;;;14.83;100.00;97927.16;4995410;28;20257;-76
2023/07/26 06:44:20;;;;;;;4.17;2.80;;;;;;;14.91;100.00;97929.41;4996117;28;20207;-76
2023/07/26 06:46:47;;;;;;;4.23;2.50;;;;;;;14.99;100.00;97922.81;4996228;28;20203;-76
2023/07/26 06:49:13;;;;;;;4.00;2.40;;;;;;;15.12;100.00;97925.94;4995836;28;20605;-77
2023/07/26 06:51:39;;;;;;;2.73;2.47;;;;;;;15.06;100.00;97921.56;4996306;28;20242;-77
2023/07/26 06:54:06;;;;;;;5.33;2.67;;;;;;;15.16;100.00;97923.53;4996362;28;20574;-76
2023/07/26 06:56:32;;;;;;;3.93;2.77;;;;;;;15.15;100.00;97933.44;4995468;28;20204;-76
2023/07/26 06:58:59;;;;;;;3.40;2.37;;;;;;;14.91;100.00;97932.09;4994631;28;20711;-76
2023/07/26 07:01:25;;;;;;;3.77;2.73;;;;;;;14.95;100.00;97935.88;4994707;28;20259;-76
2023/07/26 07:03:51;;;;;;;5.27;2.70;;;;;;;14.84;100.00;97936.00;4994783;28;20203;-76
2023/07/26 07:06:18;;;;;;;3.80;2.57;;;;;;;14.91;100.00;97947.31;4994833;28;20209;-72
2023/07/26 07:08:45;;;;;;;5.90;3.00;;;;;;;14.87;100.00;97946.19;4994733;28;20231;-72
2023/07/26 07:11:11;;;;;;;4.13;2.70;;;;;;;14.72;100.00;97948.69;4994918;28;20214;-71
2023/07/26 07:13:37;;;;;;;5.57;2.90;;;;;;;14.70;100.00;97948.94;4994450;28;20207;-71
2023/07/26 07:16:04;;;;;;;4.00;3.10;;;;;;;14.66;100.00;97947.81;4994111;28;20663;-71
2023/07/26 07:18:32;;;;;;;6.67;3.20;;;;;;;14.61;100.00;97938.91;4994478;28;20230;-72
2023/07/26 07:21:00;;;;;;;5.10;2.93;;;;;;;14.53;100.00;97939.34;4994657;28;20217;-71
2023/07/26 07:23:29;;;;;;;8.43;3.47;;;;;;;14.43;100.00;97947.22;4994598;28;20203;-71
2023/07/26 07:25:55;;;;;;;4.90;3.20;;;;;;;14.47;100.00;97946.47;4994523;28;20215;-71
2023/07/26 07:28:22;;;;;;;5.43;3.20;;;;;;;14.43;100.00;97947.22;4994038;28;20709;-71
2023/07/26 07:30:49;;;;;;;4.37;2.93;;;;;;;14.44;100.00;97951.50;4994481;28;20594;-71
2023/07/26 07:33:15;;;;;;;3.50;3.20;;;;;;;14.45;100.00;97947.78;4994557;28;20254;-71
2023/07/26 07:35:41;;;;;;;3.43;3.13;;;;;;;14.44;100.00;97944.31;4994313;28;20211;-71
2023/07/26 07:38:08;;;;;;;4.13;2.87;;;;;;;14.39;100.00;97946.09;4994559;28;20208;-71
2023/07/26 07:40:34;;;;;;;5.17;3.60;;;;;;;14.41;100.00;97946.63;4994745;28;20738;-71
2023/07/26 07:43:01;;;;;;;4.23;3.50;;;;;;;14.31;100.00;97947.31;4994352;28;20314;-72
2023/07/26 07:45:27;;;;;;;5.40;3.50;;;;;;;14.41;100.00;97954.66;4995030;28;20573;-72
2023/07/26 07:47:54;;;;;;;5.03;3.40;;;;;;;14.51;100.00;97952.94;4995055;28;20290;-72
2023/07/26 07:50:20;;;;;;;5.73;3.40;;;;;;;14.57;100.00;97951.16;4994809;28;20224;-72
2023/07/26 07:52:51;;;;;;;4.30;3.20;;;;;;;14.72;100.00;97949.50;4994893;28;20203;-72
2023/07/26 07:55:18;;;;;;;5.30;2.90;;;;;;;14.66;100.00;97955.81;4995316;28;20278;-72
2023/07/26 07:57:45;;;;;;;6.07;3.20;;;;;;;14.72;100.00;97954.88;4995031;28;20207;-72
2023/07/26 08:00:13;;;;;;;5.83;2.87;;;;;;;14.71;100.00;97957.78;4995178;28;20230;-71
2023/07/26 08:02:41;;;;;;;4.20;2.67;;;;;;;14.74;100.00;97962.66;4996753;28;20226;-72
2023/07/26 08:05:08;;;;;;;5.33;3.17;;;;;;;14.79;100.00;97960.81;4998710;28;20238;-72
2023/07/26 08:07:35;;;;;;;4.30;3.13;;;;;;;14.82;100.00;97951.50;4998997;28;20203;-71
2023/07/26 08:10:05;;;;;;;4.37;3.17;;;;;;;14.75;100.00;97954.34;4998518;28;20227;-71
2023/07/26 08:12:35;;;;;;;4.43;3.30;;;;;;;14.87;100.00;97954.22;4998077;28;20203;-70
2023/07/26 08:15:01;;;;;;;3.53;3.00;;;;;;;14.78;100.00;97951.19;4997917;28;20678;-71
2023/07/26 08:17:28;;;;;;;4.33;2.93;;;;;;;14.76;100.00;97953.31;4998196;28;20209;-71
2023/07/26 08:19:54;;;;;;;4.80;3.20;;;;;;;14.65;100.00;97958.78;4998402;28;20311;-71
2023/07/26 08:22:20;;;;;;;2.60;2.23;;;;;;;14.57;100.00;97957.31;4998198;28;20230;-71
2023/07/26 08:24:47;;;;;;;4.30;3.00;;;;;;;14.57;100.00;97951.97;4998012;28;20207;-71
2023/07/26 08:27:13;;;;;;;4.93;2.83;;;;;;;14.58;100.00;97964.31;4997923;28;20211;-71
2023/07/26 08:29:40;;;;;;;4.60;2.57;;;;;;;14.55;100.00;97972.81;4997832;28;20235;-70
2023/07/26 08:32:07;;;;;;;6.73;2.97;;;;;;;14.54;100.00;97965.03;4997829;28;20298;-71
2023/07/26 08:34:33;;;;;;;7.90;2.80;;;;;;;14.53;100.00;97966.09;4997748;28;20306;-71
2023/07/26 08:36:59;;;;;;;3.50;2.50;;;;;;;14.56;100.00;97970.97;4997847;28;20215;-70
2023/07/26 08:39:26;;;;;;;2.80;2.60;;;;;;;14.61;100.00;97961.13;4997792;28;20233;-71
2023/07/26 08:41:52;;;;;;;3.33;2.40;;;;;;;14.71;100.00;97963.13;4997812;28;20249;-71
2023/07/26 08:44:20;;;;;;;2.63;2.20;;;;;;;14.75;100.00;97975.75;4997640;28;20214;-71
2023/07/26 08:46:47;;;;;;;2.27;2.07;;;;;;;14.85;100.00;97965.22;4997583;28;20203;-72
2023/07/26 08:49:14;;;;;;;2.60;2.13;;;;;;;14.79;100.00;97954.69;4997461;28;20235;-73
2023/07/26 08:51:43;;;;;;;2.20;2.10;;;;;;;14.95;100.00;97967.19;4997492;28;20210;-73
2023/07/26 08:54:09;;;;;;;2.47;1.90;;;;;;;15.12;100.00;97967.94;4997837;28;20624;-72
2023/07/26 08:56:36;;;;;;;4.33;2.03;;;;;;;15.21;100.00;97967.28;4997893;28;20284;-73
2023/07/26 08:59:02;;;;;;;2.27;2.00;;;;;;;15.54;100.00;97966.31;4996875;28;20227;-73
2023/07/26 09:01:30;;;;;;;3.80;2.23;;;;;;;15.66;100.00;97967.78;4997302;28;20294;-73
2023/07/26 09:03:56;;;;;;;4.73;1.87;;;;;;;15.65;100.00;97968.03;4997294;28;20207;-72
2023/07/26 09:06:23;;;;;;;3.83;2.00;;;;;;;15.62;100.00;97961.31;4996883;28;20226;-72
2023/07/26 09:08:50;;;;;;;2.30;1.43;;;;;;;15.64;100.00;97967.22;4997025;28;20242;-73
2023/07/26 09:11:20;;;;;;;2.83;1.60;;;;;;;15.64;100.00;97971.75;4997133;28;20246;-72
2023/07/26 09:13:56;;;;;;;3.37;1.33;;;;;;;15.71;100.00;97969.69;4996172;28;20226;-73
2023/07/26 09:16:22;;;;;;;2.83;1.20;;;;;;;15.72;100.00;97963.28;4997205;28;20635;-73
2023/07/26 09:19:05;;;;;;;2.63;1.10;;;;;;;15.61;100.00;97970.41;4996992;28;20223;-73
2023/07/26 09:21:35;;;;;;;2.23;1.10;;;;;;;15.59;100.00;97971.72;4997460;28;20199;-72
2023/07/26 09:24:04;;;;;;;1.10;1.00;;;;;;;15.63;100.00;97962.94;4996270;28;20207;-72
2023/07/26 09:26:43;;;;;;;1.83;1.10;;;;;;;15.69;100.00;97961.91;4996718;28;20222;-73
2023/07/26 09:29:12;;;;;;;2.67;1.00;;;;;;;15.79;100.00;97964.69;4998267;28;20234;-79
2023/07/26 09:31:42;;;;;;;0.70;0.70;;;;;;;15.97;100.00;97963.53;5001756;28;20577;-79
2023/07/26 09:34:12;;;;;;;2.33;0.93;;;;;;;15.92;100.00;97972.31;5002395;28;20214;-78
2023/07/26 09:36:43;;;;;;;0.70;0.70;;;;;;;15.96;100.00;97969.94;5001448;28;20203;-78
2023/07/26 09:39:10;;;;;;;1.20;0.73;;;;;;;16.08;100.00;97966.03;5001605;28;20227;-79
2023/07/26 09:41:38;;;;;;;1.40;1.20;;;;;;;15.80;100.00;97973.53;5000112;28;20249;-79
2023/07/26 09:44:15;;;;;;;1.83;1.00;;;;;;;15.53;100.00;97978.09;5000752;28;20203;-79
2023/07/26 09:46:57;;;;;;;1.30;0.93;;;;;;;15.46;100.00;97966.75;4999477;28;20188;-79
2023/07/26 09:49:27;;;;;;;1.07;0.93;;;;;;;15.25;100.00;97967.56;5000653;28;20238;-79
2023/07/26 09:51:58;;;;;;;2.03;1.07;;;;;;;15.10;100.00;97972.75;5001350;28;20659;-79
2023/07/26 09:54:30;;;;;;;1.30;0.80;;;;;;;14.93;100.00;97974.69;4998936;28;20580;-79
2023/07/26 09:56:58;;;;;;;2.07;1.20;;;;;;;14.99;100.00;97973.66;4998263;28;20582;-72
2023/07/26 09:59:27;;;;;;;1.40;1.10;;;;;;;15.15;100.00;97968.25;4995731;28;20227;-73
2023/07/26 10:01:54;;;;;;;1.47;1.03;;;;;;;15.18;100.00;97972.28;4995709;28;20214;-73
2023/07/26 10:04:51;;;;;;;1.03;0.90;;;;;;;15.55;100.00;97971.41;4996206;28;20218;-73
2023/07/26 10:07:18;;;;;;;1.30;1.00;;;;;;;15.76;100.00;97973.25;4996251;28;20295;-73
2023/07/26 10:09:46;;;;;;;1.03;1.00;;;;;;;15.72;100.00;97969.44;4995982;28;20229;-73
2023/07/26 10:12:14;;;;;;;1.43;0.90;;;;;;;15.60;100.00;97968.78;4995770;28;20203;-72
2023/07/26 10:14:43;;;;;;;1.00;0.90;;;;;;;15.71;100.00;97972.38;4995529;28;20222;-73
2023/07/26 10:17:11;;;;;;;1.57;1.30;;;;;;;15.78;100.00;97971.09;4995551;28;20214;-73
2023/07/26 10:19:39;;;;;;;2.03;1.30;;;;;;;15.72;100.00;97965.94;4995429;28;20226;-73
2023/07/26 10:22:08;;;;;;;3.80;1.30;;;;;;;15.60;100.00;97966.09;4995661;28;20204;-73
2023/07/26 10:24:37;;;;;;;1.30;1.20;;;;;;;15.46;100.00;97967.56;4995375;28;20218;-73
2023/07/26 10:27:04;;;;;;;3.03;1.47;;;;;;;15.43;100.00;97967.28;4995621;28;20215;-72
2023/07/26 10:29:31;;;;;;;1.27;1.27;;;;;;;15.56;100.00;97973.03;4995106;28;20235;-73
2023/07/26 10:32:06;;;;;;;2.13;1.40;;;;;;;15.55;100.00;97968.72;4995476;28;20211;-72
2023/07/26 10:34:33;;;;;;;1.83;1.40;;;;;;;15.70;100.00;97976.13;4995436;28;20207;-73
2023/07/26 10:37:00;;;;;;;1.43;1.33;;;;;;;15.66;100.00;97970.47;4994987;28;20207;-73
2023/07/26 10:39:33;;;;;;;1.63;1.30;;;;;;;15.73;100.00;97973.75;4994918;28;20223;-73
2023/07/26 10:42:00;;;;;;;1.60;1.50;;;;;;;15.87;100.00;97979.53;4994919;28;20235;-73
2023/07/26 10:44:26;;;;;;;1.47;1.37;;;;;;;16.01;100.00;97983.41;4994835;28;20211;-73
2023/07/26 10:47:03;;;;;;;1.50;1.40;;;;;;;16.06;100.00;97989.59;4995056;28;20207;-73
2023/07/26 10:49:32;;;;;;;1.70;1.30;;;;;;;16.18;100.00;97984.06;4994552;28;20238;-73
2023/07/26 10:52:00;;;;;;;2.00;1.27;;;;;;;16.49;100.00;97981.41;4994780;28;20203;-73
2023/07/26 10:54:46;;;;;;;2.10;1.30;;;;;;;16.65;100.00;97972.34;4994826;28;20211;-73
2023/07/26 10:57:31;;;;;;;1.53;1.33;;;;;;;16.71;100.00;97981.25;4994526;28;20215;-73
2023/07/26 11:00:03;;;;;;;1.87;1.43;;;;;;;16.69;100.00;97970.78;4994549;28;20278;-73
2023/07/26 11:02:44;;;;;;;1.73;1.60;;;;;;;17.15;100.00;97961.09;4994291;28;20551;-73
2023/07/26 11:05:12;;;;;;;2.10;1.70;;;;;;;17.12;99.26;97967.78;4994106;28;20219;-73
2023/07/26 11:07:50;;;;;;;3.80;1.60;;;;;;;17.27;100.00;97958.97;4994179;28;20210;-73
2023/07/26 11:10:19;;;;;;;1.97;1.70;;;;;;;17.55;100.00;97961.25;4994218;28;20314;-74
2023/07/26 11:12:49;;;;;;;3.30;1.67;;;;;;;17.46;93.87;97955.56;4994484;28;20210;-73
2023/07/26 11:15:16;;;;;;;2.53;1.53;;;;;;;17.63;99.05;97953.47;4993958;28;20209;-73
2023/07/26 11:17:43;;;;;;;1.80;1.53;;;;;;;17.43;94.32;97961.50;4994229;28;20203;-73
2023/07/26 11:20:10;;;;;;;2.07;1.80;;;;;;;17.53;94.88;97961.50;4994025;28;20230;-73
2023/07/26 11:22:36;;;;;;;4.50;1.93;;;;;;;17.87;100.00;97957.25;4994358;28;20229;-73
2023/07/26 11:25:06;;;;;;;2.40;1.43;;;;;;;18.04;99.42;97960.50;4994206;28;20210;-73
2023/07/26 11:27:33;;;;;;;2.97;1.90;;;;;;;17.87;88.93;97956.47;4994257;28;20207;-73